Time;durP1;ratioP1;P1;durP2;ratioP2;P2;SDS_P1;SDS_P2;PMS_P1;PMS_P2;Temp;Humidity;BMP_temperature;BMP_pressure;BME280_temperature;BME280_humidity;BME280_pressure;Samples;Min_cycle;Max_cycle;Signal;HPM_P1;HPM_P2
2024/01/21 00:01:01;;;;;;;11.67;4.87;;;0.20;96.10;;;-1.95;77.75;101590.47;10211365;28;96615;-90
2024/01/21 00:06:05;;;;;;;11.73;4.20;;;0.10;96.10;;;-2.07;77.88;101586.53;10212876;28;96492;-90
2024/01/21 00:11:09;;;;;;;12.57;5.13;;;0.00;96.10;;;-2.20;78.64;101574.84;10210051;28;96841;-90
2024/01/21 00:16:12;;;;;;;8.50;4.47;;;0.00;96.10;;;-2.17;78.71;101577.34;10242695;28;97106;-90
2024/01/21 00:21:16;;;;;;;11.37;4.67;;;-0.10;95.90;;;-2.14;77.93;101571.19;10208462;28;96457;-89
2024/01/21 00:26:20;;;;;;;10.97;5.17;;;-0.10;95.80;;;-2.18;78.66;101568.69;10241825;28;96515;-89
2024/01/21 00:31:23;;;;;;;10.97;4.93;;;-0.10;96.00;;;-2.26;78.89;101583.72;10225747;28;96526;-89
2024/01/21 00:36:27;;;;;;;13.13;5.67;;;-0.10;96.10;;;-2.37;79.67;101598.84;10241562;28;97990;-89
2024/01/21 00:41:30;;;;;;;16.13;7.20;;;-0.20;96.10;;;-2.50;81.94;101594.97;10210813;28;96449;-89
2024/01/21 00:46:38;;;;;;;16.60;6.60;;;-0.40;96.40;;;-2.67;81.99;101590.31;10225503;28;96578;-89
2024/01/21 00:51:42;;;;;;;17.27;5.97;;;-0.50;96.50;;;-2.81;82.41;101595.09;10208881;28;97841;-90
2024/01/21 00:56:45;;;;;;;13.90;5.50;;;-0.70;96.50;;;-3.07;84.33;101573.34;10211148;28;96454;-90
2024/01/21 01:01:49;;;;;;;14.07;5.63;;;-0.80;96.80;;;-3.09;85.13;101577.75;10209469;28;96621;-90
2024/01/21 01:06:52;;;;;;;9.50;4.77;;;-0.90;97.00;;;-3.05;84.84;101574.16;10225261;28;96486;-90
2024/01/21 01:11:57;;;;;;;13.27;4.70;;;-0.90;97.20;;;-2.90;84.09;101578.03;10208492;28;98137;-90
2024/01/21 01:17:00;;;;;;;11.83;5.37;;;-0.80;97.20;;;-2.74;82.51;101579.25;10210051;28;96545;-89
2024/01/21 01:22:04;;;;;;;12.97;5.17;;;-0.70;97.10;;;-2.73;82.05;101578.34;10210115;28;96835;-89
2024/01/21 01:27:07;;;;;;;16.00;5.40;;;-0.60;96.80;;;-2.70;81.22;101593.88;10203303;28;96515;-90
2024/01/21 01:32:11;;;;;;;11.60;5.00;;;-0.60;96.70;;;-2.71;81.70;101586.09;10186320;28;98281;-89
2024/01/21 01:37:15;;;;;;;13.13;5.20;;;-0.60;96.70;;;-2.76;81.15;101593.19;10185947;28;97662;-89
2024/01/21 01:42:18;;;;;;;11.90;5.10;;;-0.70;96.70;;;-2.76;81.71;101595.78;10220257;28;96458;-88
2024/01/21 01:47:22;;;;;;;12.83;5.47;;;-0.70;96.80;;;-2.80;82.12;101595.06;10210352;28;96692;-88
2024/01/21 01:52:27;;;;;;;13.37;5.63;;;-0.70;96.90;;;-2.89;82.19;101597.94;10191610;28;98043;-89
2024/01/21 01:57:31;;;;;;;9.80;4.93;;;-0.80;96.90;;;-3.03;83.27;101585.38;10199071;28;96954;-89
2024/01/21 02:02:35;;;;;;;11.90;5.20;;;-0.90;97.10;;;-3.04;83.77;101599.28;10205173;28;96529;-89
2024/01/21 02:07:39;;;;;;;12.70;6.03;;;-0.90;97.10;;;-3.05;84.24;101605.38;10229071;28;96940;-90
2024/01/21 02:12:44;;;;;;;14.27;5.77;;;-1.00;97.30;;;-3.10;84.77;101612.47;10230320;28;96469;-89
2024/01/21 02:17:50;;;;;;;14.63;5.93;;;-1.00;97.40;;;-3.16;85.54;101612.66;10246306;28;96631;-90
2024/01/21 02:22:57;;;;;;;13.77;6.13;;;-1.00;97.60;;;-3.15;85.48;101616.94;10206222;28;97367;-89
2024/01/21 02:28:01;;;;;;;11.13;5.17;;;-1.10;97.50;;;-3.14;84.89;101618.63;10188307;28;97163;-90
2024/01/21 02:33:05;;;;;;;11.50;5.03;;;-1.00;97.70;;;-3.09;85.34;101618.50;10223018;28;96537;-89
2024/01/21 02:38:08;;;;;;;11.90;5.53;;;-1.00;98.00;;;-3.12;85.29;101621.19;10215094;28;96573;-89
2024/01/21 02:43:12;;;;;;;10.33;5.27;;;-1.10;97.80;;;-3.09;85.26;101614.16;10229742;28;97858;-90
2024/01/21 02:48:15;;;;;;;8.80;4.10;;;-1.00;97.90;;;-3.07;85.05;101632.31;10214376;28;96437;-89
2024/01/21 02:53:19;;;;;;;10.73;5.83;;;-1.00;97.80;;;-3.14;85.38;101618.63;10211426;28;96574;-89
2024/01/21 02:58:23;;;;;;;11.27;5.07;;;-1.10;97.80;;;-3.13;85.41;101622.09;10213664;28;96470;-90
2024/01/21 03:03:26;;;;;;;10.43;4.77;;;-1.00;97.80;;;-3.25;85.99;101623.31;10229466;28;96404;-90
2024/01/21 03:08:30;;;;;;;13.83;5.60;;;-1.10;97.80;;;-3.30;86.43;101635.56;10212832;28;96672;-89
2024/01/21 03:13:34;;;;;;;16.90;5.57;;;-1.20;97.90;;;-3.35;87.58;101627.94;10211598;28;96633;-89
2024/01/21 03:18:38;;;;;;;14.97;5.23;;;-1.30;98.00;;;-3.34;86.84;101645.22;10212264;28;96524;-89
2024/01/21 03:23:46;;;;;;;10.47;4.83;;;-1.30;98.10;;;-3.36;87.64;101659.16;10213028;28;96514;-89
2024/01/21 03:28:49;;;;;;;9.93;4.10;;;-1.30;98.20;;;-3.40;87.87;101678.34;10229269;28;96667;-89
2024/01/21 03:33:52;;;;;;;13.00;5.03;;;-1.30;98.20;;;-3.56;89.16;101683.09;10212240;28;96633;-89
2024/01/21 03:38:56;;;;;;;12.27;5.27;;;-1.40;98.60;;;-3.56;91.31;101685.69;10220814;28;96594;-90
2024/01/21 03:44:00;;;;;;;28.97;12.97;;;-1.50;99.00;;;-3.43;89.65;101696.59;10249862;28;96579;-90
2024/01/21 03:49:03;;;;;;;11.13;4.07;;;-1.30;98.70;;;-3.45;90.04;101709.66;10242579;28;96511;-88
2024/01/21 03:54:07;;;;;;;11.70;5.27;;;-1.30;98.90;;;-3.46;90.14;101705.34;10227055;28;97529;-88
2024/01/21 03:59:10;;;;;;;14.67;5.70;;;-1.40;98.60;;;-3.42;89.94;101703.50;10211498;28;96382;-88
2024/01/21 04:04:14;;;;;;;12.47;5.47;;;-1.40;98.70;;;-3.41;89.63;101711.28;10195462;28;96596;-89
2024/01/21 04:09:23;;;;;;;12.50;5.17;;;-1.40;98.90;;;-3.48;89.66;101696.72;10211402;28;96544;-88
2024/01/21 04:14:27;;;;;;;16.60;6.37;;;-1.40;98.70;;;-3.53;90.20;101688.22;10192049;28;97590;-89
2024/01/21 04:19:30;;;;;;;14.23;5.83;;;-1.50;98.90;;;-3.54;90.38;101683.91;10212166;28;96577;-89
2024/01/21 04:24:34;;;;;;;13.77;5.23;;;-1.50;98.90;;;-3.57;90.46;101697.00;10209682;28;96500;-88
2024/01/21 04:29:38;;;;;;;15.83;6.17;;;-1.50;99.00;;;-3.57;90.46;101703.03;10209974;28;96453;-91
2024/01/21 04:34:41;;;;;;;13.20;5.80;;;-1.50;99.00;;;-3.62;90.84;101701.47;10209090;28;96572;-88
2024/01/21 04:39:45;;;;;;;12.63;5.47;;;-1.60;99.20;;;-3.70;91.47;101696.47;10209861;28;96832;-89
2024/01/21 04:44:49;;;;;;;12.00;5.10;;;-1.60;99.00;;;-3.75;91.77;101706.13;10210024;28;96491;-88
2024/01/21 04:49:52;;;;;;;14.13;5.33;;;-1.60;99.10;;;-3.75;91.99;101702.69;10210382;28;96527;-89
2024/01/21 04:54:56;;;;;;;11.60;4.70;;;-1.60;99.20;;;-3.80;91.94;101697.59;10205883;28;96487;-89
2024/01/21 04:59:59;;;;;;;18.73;6.73;;;-1.70;99.20;;;-3.83;92.36;101695.09;10203503;28;96384;-89
2024/01/21 05:05:06;;;;;;;12.70;4.87;;;-1.70;99.30;;;-3.88;92.48;101710.78;10209019;28;96891;-88
2024/01/21 05:10:10;;;;;;;9.97;4.23;;;-1.70;99.40;;;-3.94;92.51;101728.28;10224501;28;96793;-90
2024/01/21 05:15:13;;;;;;;10.80;5.07;;;-1.80;99.40;;;-4.09;93.24;101724.28;10225296;28;96608;-90
2024/01/21 05:20:17;;;;;;;15.47;5.20;;;-1.90;99.40;;;-4.22;93.63;101717.69;10172309;28;97497;-90
2024/01/21 05:25:20;;;;;;;10.80;5.03;;;-2.00;99.50;;;-4.35;94.25;101718.00;10211951;28;96632;-89
2024/01/21 05:30:24;;;;;;;9.77;4.83;;;-2.10;99.40;;;-4.50;95.33;101725.25;10208148;28;96822;-89
2024/01/21 05:35:27;;;;;;;12.27;5.33;;;-2.20;99.70;;;-4.60;96.48;101741.06;10226688;28;96586;-92
2024/01/21 05:40:31;;;;;;;14.00;7.00;;;-2.30;99.90;;;-4.63;97.79;101746.28;10202355;28;96414;-90
2024/01/21 05:45:34;;;;;;;24.90;9.17;;;-2.20;99.90;;;-4.68;98.15;101748.16;10176266;28;96604;-91
2024/01/21 05:50:38;;;;;;;21.77;8.20;;;-2.30;99.90;;;-4.80;98.97;101753.56;10210595;28;96572;-90
2024/01/21 05:55:41;;;;;;;15.43;6.37;;;-2.40;99.90;;;-4.83;99.39;101768.38;10252308;28;96608;-91
2024/01/21 06:00:45;;;;;;;16.93;6.63;;;-2.50;99.90;;;-5.01;100.00;101759.22;10216776;28;96616;-91
2024/01/21 06:05:49;;;;;;;14.57;5.80;;;-2.60;99.90;;;-4.97;100.00;101771.25;10217021;28;96701;-92
2024/01/21 06:10:52;;;;;;;13.90;5.63;;;-2.70;99.90;;;-5.09;100.00;101780.13;10216427;28;96574;-92
2024/01/21 06:16:00;;;;;;;13.27;5.50;;;-2.80;99.90;;;-5.03;100.00;101792.13;10215914;28;96482;-92
2024/01/21 06:21:04;;;;;;;31.37;10.80;;;-2.80;99.90;;;-5.01;100.00;101795.53;10215353;28;96554;-91
2024/01/21 06:26:19;;;;;;;30.30;10.80;;;-2.80;99.90;;;-5.02;100.00;101804.19;10215748;28;96452;-91
2024/01/21 06:31:23;;;;;;;18.60;8.23;;;-2.80;99.90;;;-5.06;100.00;101811.16;10237260;28;96511;-91
2024/01/21 06:36:26;;;;;;;20.23;6.57;;;-2.80;99.90;;;-5.13;100.00;101806.97;10230720;28;96469;-91
2024/01/21 06:41:29;;;;;;;15.93;7.60;;;-2.90;99.90;;;-5.18;100.00;101808.78;10201585;28;96478;-91
2024/01/21 06:46:33;;;;;;;19.50;8.40;;;-2.90;99.90;;;-5.16;100.00;101809.59;10229472;28;96490;-91
2024/01/21 06:51:46;;;;;;;21.23;9.70;;;-2.90;99.90;;;-5.13;100.00;101806.97;10214560;28;96871;-90
2024/01/21 06:56:50;;;;;;;30.20;9.80;;;-2.90;99.90;;;-5.04;100.00;101824.06;10233590;28;96884;-88
2024/01/21 07:01:54;;;;;;;31.73;11.07;;;-2.80;99.90;;;-4.99;100.00;101810.16;10212163;28;96841;-89
2024/01/21 07:06:58;;;;;;;34.07;12.07;;;-2.70;99.90;;;-4.46;100.00;101812.53;10250680;28;96423;-88
2024/01/21 07:12:02;;;;;;;35.97;13.37;;;-2.60;99.90;;;-3.75;100.00;101820.44;10230009;28;96863;-88
2024/01/21 07:17:05;;;;;;;31.90;13.20;;;-2.30;99.90;;;-3.10;100.00;101827.44;10213551;28;96547;-89
2024/01/21 07:22:09;;;;;;;31.30;12.43;;;-2.00;99.90;;;-2.40;100.00;101827.19;10212467;28;96523;-89
2024/01/21 07:27:13;;;;;;;31.07;14.07;;;-1.60;99.90;;;-1.84;100.00;101838.50;10211152;28;96699;-90
2024/01/21 07:32:16;;;;;;;20.13;9.30;;;-1.10;99.90;;;-1.43;100.00;101836.31;10231463;28;97000;-91
2024/01/21 07:37:20;;;;;;;15.63;8.00;;;-0.70;99.90;;;-0.92;100.00;101846.69;10213660;28;96534;-91
2024/01/21 07:42:24;;;;;;;27.43;11.63;;;-0.30;99.90;;;-0.70;98.31;101843.31;10228011;28;96508;-90
2024/01/21 07:47:27;;;;;;;22.30;10.30;;;0.10;99.90;;;-0.34;97.87;101860.25;10213002;28;96619;-91
2024/01/21 07:52:31;;;;;;;46.13;16.20;;;0.30;99.90;;;0.11;94.91;101840.22;10228132;28;96362;-90
2024/01/21 07:57:34;;;;;;;20.00;8.87;;;0.60;99.90;;;0.35;88.46;101841.88;10210097;28;96573;-90
2024/01/21 08:02:38;;;;;;;16.00;8.10;;;0.80;99.90;;;0.33;87.16;101856.78;10223799;28;96593;-91
2024/01/21 08:07:41;;;;;;;15.73;8.03;;;1.00;99.90;;;0.47;83.48;101854.44;10228461;28;96392;-90
2024/01/21 08:12:45;;;;;;;18.57;8.13;;;1.10;99.90;;;0.73;82.28;101861.22;10205389;28;97235;-91
2024/01/21 08:17:48;;;;;;;16.83;8.20;;;1.30;99.90;;;0.91;81.97;101864.00;10217281;28;96563;-91
2024/01/21 08:22:52;;;;;;;22.23;10.67;;;1.60;99.90;;;1.08;78.66;101869.34;10244068;28;96571;-91
2024/01/21 08:27:55;;;;;;;24.53;11.00;;;1.90;99.90;;;1.30;77.27;101883.19;10214788;28;96540;-92
2024/01/21 08:32:59;;;;;;;22.17;8.47;;;2.20;99.90;;;1.55;78.30;101887.34;10215152;28;96490;-91
2024/01/21 08:38:02;;;;;;;17.13;7.87;;;2.60;99.90;;;1.64;75.13;101897.44;10210139;28;96680;-91
2024/01/21 08:43:06;;;;;;;20.60;9.50;;;3.00;99.90;;;1.78;73.96;101908.13;10189658;28;96533;-92
2024/01/21 08:48:10;;;;;;;16.33;7.67;;;3.10;99.90;;;1.89;73.01;101912.88;10194241;28;96478;-92
2024/01/21 08:53:14;;;;;;;21.73;9.30;;;3.40;99.90;;;2.07;73.12;101911.19;10209816;28;96734;-93
2024/01/21 08:58:18;;;;;;;27.07;9.63;;;3.70;99.90;;;2.34;71.17;101915.16;10234821;28;96494;-92
2024/01/21 09:03:21;;;;;;;28.93;11.30;;;4.10;99.90;;;2.62;67.55;101919.03;10207886;28;96793;-91
2024/01/21 09:08:25;;;;;;;24.57;10.93;;;4.40;99.90;;;2.86;66.42;101933.59;10259884;28;96463;-91
2024/01/21 09:13:29;;;;;;;29.33;11.93;;;4.40;99.20;;;2.93;67.41;101931.50;10225823;28;96719;-92
2024/01/21 09:18:33;;;;;;;21.47;8.63;;;4.40;99.10;;;2.32;63.03;101924.00;10233844;28;96815;-91
2024/01/21 09:23:37;;;;;;;34.23;10.70;;;4.10;97.80;;;2.10;66.72;101937.28;10215965;28;97033;-91
2024/01/21 09:28:42;;;;;;;173.13;28.70;;;3.90;98.50;;;2.32;66.58;101931.84;10232500;28;97850;-91
2024/01/21 09:33:46;;;;;;;136.23;22.27;;;4.20;99.00;;;2.93;67.23;101924.47;10246832;28;96608;-92
2024/01/21 09:38:53;;;;;;;207.10;33.77;;;4.80;99.30;;;3.43;65.43;101933.34;10216508;28;96621;-92
2024/01/21 09:43:57;;;;;;;30.43;9.73;;;5.30;98.90;;;4.05;63.72;101933.56;10217396;28;96552;-92
2024/01/21 09:49:02;;;;;;;58.07;14.27;;;5.90;98.00;;;4.60;62.45;101931.34;10232836;28;96502;-92
2024/01/21 09:54:07;;;;;;;37.60;11.80;;;6.40;97.60;;;5.10;60.90;101924.97;10231970;28;96643;-92
2024/01/21 09:59:11;;;;;;;50.20;13.43;;;6.90;97.20;;;5.56;60.59;101936.22;10245736;28;96631;-91
2024/01/21 10:04:15;;;;;;;267.93;42.33;;;7.30;96.30;;;5.73;58.27;101926.44;10199983;28;96593;-91
2024/01/21 10:09:21;;;;;;;21.73;9.50;;;7.30;95.20;;;5.19;55.49;101918.28;10231434;28;97995;-91
2024/01/21 10:14:28;;;;;;;24.27;10.73;;;6.80;92.50;;;4.47;56.29;101918.03;10216580;28;96622;-91
2024/01/21 10:19:35;;;;;;;18.10;8.33;;;6.30;92.90;;;3.59;54.24;101922.88;10223291;28;97446;-89
2024/01/21 10:24:48;;;;;;;33.67;11.23;;;5.60;91.30;;;3.11;56.52;101927.94;10223996;28;98171;-91
2024/01/21 10:29:52;;;;;;;18.03;8.63;;;5.10;90.10;;;3.24;57.53;101936.09;10247926;28;97445;-90
2024/01/21 10:34:56;;;;;;;21.10;8.00;;;5.00;91.10;;;3.34;58.40;101934.66;10232318;28;96683;-90
2024/01/21 10:40:02;;;;;;;23.73;11.00;;;5.00;92.10;;;3.08;59.63;101932.53;10215608;28;96537;-90
2024/01/21 10:45:06;;;;;;;20.37;8.30;;;4.80;91.70;;;2.62;59.54;101940.03;10216280;28;96929;-90
2024/01/21 10:50:11;;;;;;;24.07;10.13;;;4.50;91.40;;;2.20;60.47;101938.53;10227340;28;97898;-89
2024/01/21 10:55:16;;;;;;;18.60;8.37;;;4.10;90.40;;;2.31;64.08;101928.38;10213978;28;96508;-88
2024/01/21 11:00:20;;;;;;;35.10;11.10;;;4.30;92.50;;;3.11;59.83;101929.72;10229782;28;97819;-89
2024/01/21 11:05:23;;;;;;;21.00;8.60;;;5.20;92.90;;;3.90;60.27;101922.97;10230380;28;96520;-88
2024/01/21 11:10:36;;;;;;;14.60;7.60;;;5.80;92.60;;;4.15;56.76;101908.47;10243861;28;96654;-88
2024/01/21 11:15:47;;;;;;;92.33;38.17;;;6.00;90.20;;;4.42;57.70;101904.28;10214827;28;96407;-87
2024/01/21 11:21:01;;;;;;;59.47;11.50;;;6.10;90.90;;;4.89;57.74;101902.50;10227714;28;97801;-87
2024/01/21 11:26:05;;;;;;;29.23;9.70;;;6.60;91.20;;;4.90;55.91;101893.66;10216088;28;96586;-86
2024/01/21 11:31:08;;;;;;;76.90;15.37;;;6.60;90.10;;;4.45;56.14;101890.97;10224574;28;96788;-87
2024/01/21 11:36:13;;;;;;;32.27;11.10;;;6.20;90.00;;;3.81;57.27;101899.78;10205343;28;96638;-85
2024/01/21 11:41:19;;;;;;;26.40;9.40;;;5.60;88.50;;;3.18;57.78;101907.50;10212197;28;96544;-86
2024/01/21 11:46:23;;;;;;;25.43;8.80;;;5.00;88.60;;;2.68;59.75;101903.84;10243824;28;96515;-86
2024/01/21 11:51:27;;;;;;;158.30;26.53;;;4.50;89.50;;;2.41;61.34;101903.44;10211450;28;96478;-86
2024/01/21 11:56:30;;;;;;;30.43;8.73;;;4.30;90.10;;;2.13;62.93;101903.03;10213263;28;96491;-86
2024/01/21 12:01:38;;;;;;;19.50;6.07;;;4.00;90.30;;;1.92;63.77;101914.50;10229490;28;97478;-86
2024/01/21 12:06:46;;;;;;;47.93;12.93;;;3.80;90.40;;;1.76;64.54;101907.34;10255989;28;97503;-85
2024/01/21 12:11:51;;;;;;;14.03;6.50;;;3.70;90.60;;;1.70;65.94;101905.00;10226176;28;96395;-85
2024/01/21 12:16:54;;;;;;;20.33;7.17;;;3.60;91.00;;;1.63;66.60;101894.88;10224738;28;96452;-85
2024/01/21 12:21:58;;;;;;;25.23;10.97;;;3.50;91.40;;;1.55;65.96;101892.59;10219241;28;96559;-85
2024/01/21 12:27:02;;;;;;;15.67;7.20;;;3.50;91.20;;;1.46;67.25;101898.25;10210284;28;96900;-85
2024/01/21 12:32:07;;;;;;;17.97;7.20;;;3.40;91.30;;;1.37;67.65;101901.25;10212655;28;96504;-85
2024/01/21 12:37:12;;;;;;;19.70;7.80;;;3.30;91.50;;;1.33;69.25;101904.03;10232036;28;96677;-85
2024/01/21 12:42:16;;;;;;;13.83;6.30;;;3.20;91.70;;;1.30;68.51;101904.16;10220419;28;96618;-85
2024/01/21 12:47:20;;;;;;;13.17;6.30;;;3.20;91.60;;;1.24;69.83;101893.94;10212854;28;96617;-85
2024/01/21 12:52:24;;;;;;;24.07;8.47;;;3.20;91.90;;;1.27;71.00;101901.69;10225384;28;96521;-86
2024/01/21 12:57:27;;;;;;;13.80;6.07;;;3.20;92.10;;;1.29;72.44;101905.06;10209754;28;96992;-88
2024/01/21 13:02:31;;;;;;;51.40;12.37;;;3.20;92.60;;;1.29;72.11;101910.31;10206852;28;96935;-86
2024/01/21 13:07:34;;;;;;;19.77;7.73;;;3.20;92.50;;;1.26;72.13;101910.47;10218500;28;98276;-86
2024/01/21 13:12:38;;;;;;;30.17;10.07;;;3.20;92.50;;;1.20;71.06;101905.47;10205633;28;98168;-87
2024/01/21 13:17:42;;;;;;;18.00;7.43;;;3.20;92.40;;;1.12;70.65;101904.09;10209957;28;97173;-87
2024/01/21 13:22:45;;;;;;;23.20;8.03;;;3.10;92.20;;;1.10;71.05;101914.63;10208855;28;98234;-86
2024/01/21 13:28:06;;;;;;;15.30;7.57;;;3.00;92.50;;;1.09;73.05;101899.84;10215077;28;96617;-87
2024/01/21 13:33:12;;;;;;;13.23;6.53;;;3.00;92.80;;;1.03;73.10;101894.88;10223123;28;96579;-87
2024/01/21 13:38:28;;;;;;;14.37;6.73;;;3.00;92.90;;;1.01;73.45;101897.53;10240363;28;96830;-87
2024/01/21 13:43:33;;;;;;;14.57;6.67;;;3.00;92.80;;;0.97;74.04;101900.38;10217334;28;98754;-87
2024/01/21 13:48:38;;;;;;;15.07;7.00;;;3.00;93.10;;;0.92;74.58;101886.63;10211919;28;96563;-87
2024/01/21 13:53:42;;;;;;;13.97;6.97;;;2.90;93.10;;;0.87;72.81;101888.56;10205726;28;97161;-87
2024/01/21 13:58:45;;;;;;;19.70;7.03;;;2.90;92.90;;;0.86;74.62;101884.25;10246228;28;96606;-87
2024/01/21 14:03:49;;;;;;;17.77;8.53;;;2.80;93.20;;;0.82;74.90;101880.91;10229038;28;96865;-87
2024/01/21 14:08:52;;;;;;;16.63;7.63;;;2.80;93.20;;;0.77;74.74;101885.47;10216744;28;96958;-87
2024/01/21 14:13:55;;;;;;;15.47;7.77;;;2.80;93.10;;;0.72;75.63;101880.47;10232098;28;97017;-87
2024/01/21 14:18:59;;;;;;;20.57;8.60;;;2.70;93.50;;;0.68;75.87;101893.72;10215094;28;96817;-86
2024/01/21 14:24:05;;;;;;;19.03;7.03;;;2.70;93.40;;;0.64;75.96;101895.59;10213690;28;96857;-87
2024/01/21 14:29:29;;;;;;;21.23;8.63;;;2.70;93.50;;;0.62;77.04;101918.38;10190956;28;96466;-87
2024/01/21 14:34:33;;;;;;;19.27;7.67;;;2.60;93.50;;;0.50;77.10;101908.41;10214649;28;96523;-87
2024/01/21 14:39:37;;;;;;;48.87;16.17;;;2.60;93.60;;;0.45;77.51;101902.50;10213095;28;96618;-87
2024/01/21 14:44:40;;;;;;;29.93;12.50;;;2.50;93.70;;;0.34;77.88;101904.69;10216671;28;96494;-86
2024/01/21 14:49:44;;;;;;;22.87;9.73;;;2.40;93.70;;;0.22;78.61;101914.72;10242281;28;96911;-87
2024/01/21 14:54:47;;;;;;;24.77;11.03;;;2.30;93.90;;;0.09;79.18;101926.56;10209837;28;97380;-87
2024/01/21 14:59:52;;;;;;;23.30;10.37;;;2.10;93.90;;;-0.07;79.96;101935.88;10210144;28;97551;-87
2024/01/21 15:04:55;;;;;;;22.87;11.77;;;2.00;94.00;;;-0.31;80.19;101942.88;10217901;28;96547;-88
2024/01/21 15:09:58;;;;;;;24.40;11.20;;;1.80;94.20;;;-0.51;80.72;101943.59;10224571;28;96898;-87
2024/01/21 15:15:29;;;;;;;24.83;11.00;;;1.60;94.30;;;-0.72;82.08;101946.94;10199830;28;97168;-88
2024/01/21 15:20:32;;;;;;;23.47;10.27;;;1.50;94.40;;;-0.94;82.96;101952.06;10233377;28;97097;-88
2024/01/21 15:25:36;;;;;;;33.40;13.83;;;1.30;94.70;;;-1.15;83.99;101956.22;10225486;28;96665;-87
2024/01/21 15:30:42;;;;;;;25.33;12.77;;;1.10;94.70;;;-1.41;84.37;101951.84;10228641;28;97034;-88
2024/01/21 15:35:46;;;;;;;32.00;11.70;;;0.80;94.80;;;-1.64;85.42;101963.81;10264769;28;97002;-87
2024/01/21 15:40:50;;;;;;;25.77;12.73;;;0.60;95.00;;;-1.88;86.36;101972.38;10226717;28;96553;-87
2024/01/21 15:45:53;;;;;;;29.30;13.30;;;0.40;95.20;;;-2.08;87.02;101967.75;10226159;28;96881;-87
2024/01/21 15:50:58;;;;;;;26.00;12.40;;;0.10;95.40;;;-2.31;88.43;101976.22;10246080;28;97381;-87
2024/01/21 15:56:02;;;;;;;35.80;13.80;;;-0.10;95.90;;;-2.53;89.57;101981.13;10209845;28;96620;-87
2024/01/21 16:01:06;;;;;;;34.87;14.83;;;-0.20;95.90;;;-2.71;90.71;101987.69;10208751;28;97119;-89
2024/01/21 16:06:10;;;;;;;78.43;24.47;;;-0.40;96.10;;;-2.86;91.74;102001.09;10206774;28;96699;-88
2024/01/21 16:11:13;;;;;;;88.43;28.73;;;-0.60;96.50;;;-3.00;93.17;101998.84;10231334;28;96494;-89
2024/01/21 16:16:17;;;;;;;76.00;26.57;;;-0.70;96.80;;;-3.10;94.17;102009.50;10227186;28;96629;-90
2024/01/21 16:21:21;;;;;;;72.33;28.10;;;-0.90;96.90;;;-3.19;95.42;102007.09;10224729;28;97077;-89
2024/01/21 16:26:25;;;;;;;67.63;26.10;;;-0.90;97.40;;;-3.30;96.56;102010.81;10227558;28;96787;-88
2024/01/21 16:31:30;;;;;;;75.57;29.27;;;-1.00;97.40;;;-3.39;97.29;102002.38;10222421;28;96790;-88
2024/01/21 16:36:34;;;;;;;68.87;25.77;;;-1.10;97.60;;;-3.49;98.14;102019.91;10250386;28;96649;-89
2024/01/21 16:41:38;;;;;;;70.00;27.33;;;-1.20;97.80;;;-3.60;98.87;102022.75;10207889;28;97073;-89
2024/01/21 16:46:41;;;;;;;59.47;23.87;;;-1.30;97.90;;;-3.68;99.40;102034.19;10208565;28;96533;-88
2024/01/21 16:52:06;;;;;;;57.23;20.40;;;-1.40;97.90;;;-3.76;100.00;102023.97;10208585;28;96770;-89
2024/01/21 16:57:10;;;;;;;55.80;19.80;;;-1.50;98.50;;;-3.78;100.00;102038.69;10243915;28;97001;-89
2024/01/21 17:02:18;;;;;;;49.63;20.10;;;-1.50;98.40;;;-3.80;100.00;102037.88;10200222;28;96711;-89
2024/01/21 17:07:22;;;;;;;53.23;20.93;;;-1.60;98.50;;;-3.86;100.00;102031.06;10203611;28;96863;-89
2024/01/21 17:12:32;;;;;;;68.73;25.17;;;-1.60;98.90;;;-3.93;100.00;102041.63;10241942;28;96762;-89
2024/01/21 17:17:42;;;;;;;63.63;25.97;;;-1.70;99.20;;;-4.00;100.00;102053.88;10224131;28;96576;-88
2024/01/21 17:22:46;;;;;;;57.70;22.50;;;-1.70;99.30;;;-4.11;100.00;102054.06;10227993;28;97031;-88
2024/01/21 17:27:50;;;;;;;58.47;22.73;;;-1.80;99.80;;;-4.18;100.00;102056.81;10221819;28;98079;-89
2024/01/21 17:32:54;;;;;;;51.07;20.03;;;-1.90;99.90;;;-4.23;100.00;102053.47;10209834;28;96881;-90
2024/01/21 17:37:57;;;;;;;58.67;23.27;;;-1.90;99.90;;;-4.34;100.00;102070.06;10215258;28;96890;-90
2024/01/21 17:43:02;;;;;;;70.90;28.53;;;-2.00;99.90;;;-4.38;100.00;102077.94;10219363;28;97091;-90
2024/01/21 17:48:07;;;;;;;71.63;27.10;;;-2.10;99.90;;;-4.42;100.00;102077.16;10213521;28;98334;-90
2024/01/21 17:53:10;;;;;;;73.63;27.80;;;-2.20;99.90;;;-4.50;100.00;102072.94;10215490;28;96627;-90
2024/01/21 17:58:14;;;;;;;63.83;23.70;;;-2.20;99.90;;;-4.54;100.00;102076.50;10241330;28;96449;-90
2024/01/21 18:03:17;;;;;;;71.33;28.70;;;-2.20;99.90;;;-4.52;100.00;102073.00;10236806;28;97165;-91
2024/01/21 18:08:21;;;;;;;93.47;35.07;;;-2.30;99.90;;;-4.62;100.00;102066.22;10206570;28;96755;-90
2024/01/21 18:13:24;;;;;;;90.53;35.77;;;-2.30;99.90;;;-4.61;100.00;102075.75;10225969;28;96982;-90
2024/01/21 18:18:28;;;;;;;90.47;36.37;;;-2.40;99.90;;;-4.66;100.00;102062.84;10239440;28;96790;-90
2024/01/21 18:23:32;;;;;;;87.60;35.30;;;-2.40;99.90;;;-4.68;100.00;102064.63;10213942;28;96535;-91
2024/01/21 18:28:36;;;;;;;72.27;28.30;;;-2.40;99.90;;;-4.73;100.00;102084.59;10214398;28;96562;-90
2024/01/21 18:33:39;;;;;;;69.83;27.20;;;-2.50;99.90;;;-4.80;100.00;102095.91;10215445;28;96637;-89
2024/01/21 18:38:43;;;;;;;64.03;25.73;;;-2.50;99.90;;;-4.81;100.00;102083.84;10213636;28;96462;-89
2024/01/21 18:43:48;;;;;;;60.30;24.33;;;-2.30;99.90;;;-4.84;100.00;102104.66;10186100;28;96619;-90
2024/01/21 18:48:52;;;;;;;67.30;24.60;;;-2.40;99.90;;;-4.71;100.00;102092.34;10189757;28;97174;-92
2024/01/21 18:53:57;;;;;;;55.40;24.43;;;-2.50;99.90;;;-4.67;100.00;102094.00;10228667;28;96595;-90
2024/01/21 18:59:01;;;;;;;54.63;22.40;;;-2.60;99.90;;;-4.68;100.00;102085.38;10195306;28;96580;-89
2024/01/21 19:04:04;;;;;;;57.13;22.87;;;-2.60;99.90;;;-4.72;100.00;102073.31;10211087;28;97458;-91
2024/01/21 19:09:08;;;;;;;69.27;27.60;;;-2.60;99.90;;;-4.78;100.00;102070.84;10226137;28;96702;-90
2024/01/21 19:14:12;;;;;;;62.33;22.07;;;-2.70;99.90;;;-4.89;100.00;102071.00;10209312;28;97588;-90
2024/01/21 19:19:15;;;;;;;44.93;19.17;;;-2.70;99.90;;;-4.95;100.00;102080.59;10212935;28;96712;-90
2024/01/21 19:24:20;;;;;;;50.73;20.53;;;-2.70;99.90;;;-5.04;100.00;102076.41;10212140;28;98213;-90
2024/01/21 19:29:24;;;;;;;58.17;22.73;;;-2.80;99.90;;;-5.08;100.00;102066.13;10212082;28;97889;-90
2024/01/21 19:34:27;;;;;;;52.77;20.60;;;-2.80;99.90;;;-5.07;100.00;102066.09;10229652;28;96849;-90
2024/01/21 19:39:32;;;;;;;54.03;21.83;;;-2.80;99.90;;;-5.11;100.00;102054.91;10215835;28;97989;-89
2024/01/21 19:44:35;;;;;;;46.27;17.97;;;-2.80;99.90;;;-5.08;100.00;102053.16;10210067;28;97811;-90
2024/01/21 19:49:39;;;;;;;43.73;16.30;;;-2.80;99.90;;;-5.08;100.00;102064.38;10199701;28;96599;-90
2024/01/21 19:54:43;;;;;;;41.37;17.17;;;-2.80;99.90;;;-5.05;100.00;102076.44;10222076;28;97922;-90
2024/01/21 19:59:47;;;;;;;51.37;20.37;;;-2.80;99.90;;;-5.05;100.00;102073.84;10208063;28;96544;-92
2024/01/21 20:04:51;;;;;;;41.20;16.00;;;-2.80;99.90;;;-5.04;100.00;102054.81;10204595;28;96639;-90
2024/01/21 20:09:55;;;;;;;44.83;17.33;;;-2.80;99.90;;;-5.06;100.00;102051.41;10203581;28;96699;-89
2024/01/21 20:14:59;;;;;;;46.03;18.10;;;-2.80;99.90;;;-4.99;100.00;102059.03;10219556;28;96591;-89
2024/01/21 20:20:06;;;;;;;59.93;20.17;;;-2.70;99.90;;;-4.94;100.00;102058.97;10235019;28;97002;-89
2024/01/21 20:25:09;;;;;;;62.57;23.63;;;-2.70;99.90;;;-4.88;100.00;102057.16;10204835;28;96605;-90
2024/01/21 20:30:17;;;;;;;72.07;24.17;;;-2.70;99.90;;;-4.87;100.00;102048.47;10206991;28;97948;-90
2024/01/21 20:35:21;;;;;;;59.43;22.50;;;-2.60;99.90;;;-4.81;100.00;102057.03;10218455;28;96673;-90
2024/01/21 20:40:24;;;;;;;54.30;20.13;;;-2.60;99.90;;;-4.82;100.00;102055.34;10184469;28;96734;-90